sensor_id;sensor_type;location;lat;lon;timestamp;pressure;altitude;pressure_sealevel;temperature;humidity
45894;BME280;31603;51.148;16.932;2024-01-25T00:02:21;99867.63;;;6.42;100.00
45894;BME280;31603;51.148;16.932;2024-01-25T00:04:48;99907.78;;;6.41;100.00
45894;BME280;31603;51.148;16.932;2024-01-25T00:07:14;99918.56;;;6.49;100.00
45894;BME280;31603;51.148;16.932;2024-01-25T00:09:40;99922.44;;;6.55;100.00
45894;BME280;31603;51.148;16.932;2024-01-25T00:12:07;99918.28;;;6.59;100.00
45894;BME280;31603;51.148;16.932;2024-01-25T00:14:35;99911.13;;;6.58;100.00
45894;BME280;31603;51.148;16.932;2024-01-25T00:17:02;99916.13;;;6.55;100.00
45894;BME280;31603;51.148;16.932;2024-01-25T00:19:28;99901.91;;;6.59;100.00
45894;BME280;31603;51.148;16.932;2024-01-25T00:21:56;99905.28;;;6.61;100.00
45894;BME280;31603;51.148;16.932;2024-01-25T00:24:22;99909.22;;;6.73;100.00
45894;BME280;31603;51.148;16.932;2024-01-25T00:26:48;99907.06;;;6.69;100.00
45894;BME280;31603;51.148;16.932;2024-01-25T00:29:14;99911.69;;;6.68;100.00
45894;BME280;31603;51.148;16.932;2024-01-25T00:31:42;99913.75;;;6.66;100.00
45894;BME280;31603;51.148;16.932;2024-01-25T00:34:09;99903.88;;;6.65;100.00
45894;BME280;31603;51.148;16.932;2024-01-25T00:36:36;99943.56;;;6.61;100.00
45894;BME280;31603;51.148;16.932;2024-01-25T00:39:02;99905.75;;;6.65;100.00
45894;BME280;31603;51.148;16.932;2024-01-25T00:41:29;99924.69;;;6.66;100.00
45894;BME280;31603;51.148;16.932;2024-01-25T00:43:58;99924.56;;;6.74;100.00
45894;BME280;31603;51.148;16.932;2024-01-25T00:46:24;99926.06;;;6.77;100.00
45894;BME280;31603;51.148;16.932;2024-01-25T00:48:53;99930.31;;;6.80;100.00
45894;BME280;31603;51.148;16.932;2024-01-25T00:51:21;99900.00;;;6.60;100.00
45894;BME280;31603;51.148;16.932;2024-01-25T00:53:48;99938.91;;;6.77;100.00
45894;BME280;31603;51.148;16.932;2024-01-25T00:56:14;99952.19;;;6.80;100.00
45894;BME280;31603;51.148;16.932;2024-01-25T00:58:41;99947.81;;;6.85;100.00
45894;BME280;31603;51.148;16.932;2024-01-25T01:01:07;99937.38;;;6.74;100.00
45894;BME280;31603;51.148;16.932;2024-01-25T01:03:35;99948.41;;;6.81;100.00
45894;BME280;31603;51.148;16.932;2024-01-25T01:06:03;99958.03;;;6.77;100.00
45894;BME280;31603;51.148;16.932;2024-01-25T01:08:29;99952.34;;;6.78;100.00
45894;BME280;31603;51.148;16.932;2024-01-25T01:10:56;99965.38;;;6.76;100.00
45894;BME280;31603;51.148;16.932;2024-01-25T01:13:22;99953.19;;;6.79;100.00
45894;BME280;31603;51.148;16.932;2024-01-25T01:15:48;99935.50;;;6.74;100.00
45894;BME280;31603;51.148;16.932;2024-01-25T01:18:15;99971.94;;;6.82;100.00
45894;BME280;31603;51.148;16.932;2024-01-25T01:20:41;99962.72;;;6.83;100.00
45894;BME280;31603;51.148;16.932;2024-01-25T01:23:08;99961.94;;;6.89;100.00
45894;BME280;31603;51.148;16.932;2024-01-25T01:25:35;99975.22;;;6.92;100.00
45894;BME280;31603;51.148;16.932;2024-01-25T01:28:01;99984.72;;;6.96;100.00
45894;BME280;31603;51.148;16.932;2024-01-25T01:30:27;99983.13;;;7.02;100.00
45894;BME280;31603;51.148;16.932;2024-01-25T01:32:54;99991.97;;;7.04;100.00
45894;BME280;31603;51.148;16.932;2024-01-25T01:35:20;99989.69;;;7.07;100.00
45894;BME280;31603;51.148;16.932;2024-01-25T01:37:46;99983.13;;;7.02;100.00
45894;BME280;31603;51.148;16.932;2024-01-25T01:40:14;99986.97;;;7.07;100.00
45894;BME280;31603;51.148;16.932;2024-01-25T01:42:40;99993.22;;;7.01;100.00
45894;BME280;31603;51.148;16.932;2024-01-25T01:45:07;99971.59;;;7.06;100.00
45894;BME280;31603;51.148;16.932;2024-01-25T01:47:37;99975.84;;;7.09;100.00
45894;BME280;31603;51.148;16.932;2024-01-25T01:50:03;99990.97;;;7.05;100.00
45894;BME280;31603;51.148;16.932;2024-01-25T01:52:30;99994.06;;;7.02;100.00
45894;BME280;31603;51.148;16.932;2024-01-25T01:54:56;99988.69;;;7.08;100.00
45894;BME280;31603;51.148;16.932;2024-01-25T01:57:24;99996.97;;;7.00;100.00
45894;BME280;31603;51.148;16.932;2024-01-25T01:59:51;99998.03;;;6.99;100.00
45894;BME280;31603;51.148;16.932;2024-01-25T02:02:17;100003.38;;;7.07;100.00
45894;BME280;31603;51.148;16.932;2024-01-25T02:04:43;99996.97;;;7.00;100.00
45894;BME280;31603;51.148;16.932;2024-01-25T02:07:10;99999.06;;;6.98;100.00
45894;BME280;31603;51.148;16.932;2024-01-25T02:09:37;100015.47;;;6.98;100.00
45894;BME280;31603;51.148;16.932;2024-01-25T02:12:03;100009.53;;;6.94;100.00
45894;BME280;31603;51.148;16.932;2024-01-25T02:14:31;100004.25;;;6.93;100.00
45894;BME280;31603;51.148;16.932;2024-01-25T02:16:57;100008.69;;;6.94;100.00
45894;BME280;31603;51.148;16.932;2024-01-25T02:19:24;100016.22;;;6.92;100.00
45894;BME280;31603;51.148;16.932;2024-01-25T02:21:51;100007.19;;;6.91;100.00
45894;BME280;31603;51.148;16.932;2024-01-25T02:24:19;99999.84;;;6.92;100.00
45894;BME280;31603;51.148;16.932;2024-01-25T02:26:47;100007.44;;;6.96;100.00
45894;BME280;31603;51.148;16.932;2024-01-25T02:29:14;100011.03;;;6.97;100.00
45894;BME280;31603;51.148;16.932;2024-01-25T02:31:40;100012.84;;;6.90;100.00
45894;BME280;31603;51.148;16.932;2024-01-25T02:34:07;100021.97;;;6.97;100.00
45894;BME280;31603;51.148;16.932;2024-01-25T02:36:33;100008.88;;;6.92;100.00
45894;BME280;31603;51.148;16.932;2024-01-25T02:38:59;100007.38;;;6.90;100.00
45894;BME280;31603;51.148;16.932;2024-01-25T02:41:29;100005.97;;;6.94;100.00
45894;BME280;31603;51.148;16.932;2024-01-25T02:43:56;99963.88;;;6.73;100.00
45894;BME280;31603;51.148;16.932;2024-01-25T02:46:22;99999.06;;;6.98;100.00
45894;BME280;31603;51.148;16.932;2024-01-25T02:48:49;100008.59;;;7.02;100.00
45894;BME280;31603;51.148;16.932;2024-01-25T02:51:15;99998.69;;;7.01;100.00
45894;BME280;31603;51.148;16.932;2024-01-25T02:53:41;100003.69;;;6.97;100.00
45894;BME280;31603;51.148;16.932;2024-01-25T02:56:08;99996.34;;;6.98;100.00
45894;BME280;31603;51.148;16.932;2024-01-25T02:58:35;100015.66;;;6.96;100.00
45894;BME280;31603;51.148;16.932;2024-01-25T03:01:01;100007.28;;;6.98;100.00
45894;BME280;31603;51.148;16.932;2024-01-25T03:03:28;100006.78;;;7.09;100.00
45894;BME280;31603;51.148;16.932;2024-01-25T03:05:54;100009.88;;;7.06;100.00
45894;BME280;31603;51.148;16.932;2024-01-25T03:08:20;100008.66;;;7.09;100.00
45894;BME280;31603;51.148;16.932;2024-01-25T03:10:47;99897.88;;;6.40;100.00
45894;BME280;31603;51.148;16.932;2024-01-25T03:13:14;100019.41;;;7.10;100.00
45894;BME280;31603;51.148;16.932;2024-01-25T03:15:42;100016.28;;;7.13;100.00
45894;BME280;31603;51.148;16.932;2024-01-25T03:18:09;100024.94;;;7.17;100.00
45894;BME280;31603;51.148;16.932;2024-01-25T03:20:35;100027.22;;;7.13;100.00
45894;BME280;31603;51.148;16.932;2024-01-25T03:23:02;100015.22;;;7.14;100.00
45894;BME280;31603;51.148;16.932;2024-01-25T03:25:28;100012.78;;;7.19;100.00
45894;BME280;31603;51.148;16.932;2024-01-25T03:27:55;100031.84;;;7.13;100.00
45894;BME280;31603;51.148;16.932;2024-01-25T03:30:21;100019.03;;;7.13;100.00
45894;BME280;31603;51.148;16.932;2024-01-25T03:32:49;100027.88;;;7.15;100.00
45894;BME280;31603;51.148;16.932;2024-01-25T03:35:16;99989.31;;;7.10;100.00
45894;BME280;31603;51.148;16.932;2024-01-25T03:37:42;100009.75;;;7.14;100.00
45894;BME280;31603;51.148;16.932;2024-01-25T03:40:09;100017.97;;;7.14;100.00
45894;BME280;31603;51.148;16.932;2024-01-25T03:42:35;100018.44;;;7.18;100.00
45894;BME280;31603;51.148;16.932;2024-01-25T03:45:02;100007.69;;;7.16;100.00
45894;BME280;31603;51.148;16.932;2024-01-25T03:47:28;100008.06;;;7.13;100.00
45894;BME280;31603;51.148;16.932;2024-01-25T03:49:56;100003.44;;;7.14;100.00
45894;BME280;31603;51.148;16.932;2024-01-25T03:52:22;100019.94;;;7.20;100.00
45894;BME280;31603;51.148;16.932;2024-01-25T03:54:48;99995.47;;;7.12;100.00
45894;BME280;31603;51.148;16.932;2024-01-25T03:57:15;100020.31;;;7.17;100.00
45894;BME280;31603;51.148;16.932;2024-01-25T03:59:41;100012.72;;;7.13;100.00
45894;BME280;31603;51.148;16.932;2024-01-25T04:02:07;100013.75;;;7.12;100.00
45894;BME280;31603;51.148;16.932;2024-01-25T04:04:35;99998.19;;;7.12;100.00
45894;BME280;31603;51.148;16.932;2024-01-25T04:07:03;100006.19;;;7.14;100.00
45894;BME280;31603;51.148;16.932;2024-01-25T04:09:29;100006.41;;;7.12;100.00
45894;BME280;31603;51.148;16.932;2024-01-25T04:11:56;100016.41;;;7.05;100.00
45894;BME280;31603;51.148;16.932;2024-01-25T04:14:22;100023.94;;;7.03;100.00
45894;BME280;31603;51.148;16.932;2024-01-25T04:16:48;100029.78;;;7.00;100.00
45894;BME280;31603;51.148;16.932;2024-01-25T04:19:16;100031.22;;;6.96;100.00
45894;BME280;31603;51.148;16.932;2024-01-25T04:21:42;100024.44;;;6.92;100.00
45894;BME280;31603;51.148;16.932;2024-01-25T04:24:10;100027.94;;;6.86;100.00
45894;BME280;31603;51.148;16.932;2024-01-25T04:26:38;100023.50;;;6.85;100.00
45894;BME280;31603;51.148;16.932;2024-01-25T04:29:04;100027.94;;;6.86;100.00
45894;BME280;31603;51.148;16.932;2024-01-25T04:31:31;100017.66;;;6.88;100.00
45894;BME280;31603;51.148;16.932;2024-01-25T04:33:57;100006.63;;;6.81;100.00
45894;BME280;31603;51.148;16.932;2024-01-25T04:36:24;100015.88;;;6.80;100.00
45894;BME280;31603;51.148;16.932;2024-01-25T04:38:50;100019.56;;;6.72;100.00
45894;BME280;31603;51.148;16.932;2024-01-25T04:41:18;100014.59;;;6.61;100.00
45894;BME280;31603;51.148;16.932;2024-01-25T04:43:44;100019.75;;;6.56;100.00
45894;BME280;31603;51.148;16.932;2024-01-25T04:46:11;100016.47;;;6.46;100.00
45894;BME280;31603;51.148;16.932;2024-01-25T04:48:37;99996.31;;;6.47;100.00
45894;BME280;31603;51.148;16.932;2024-01-25T04:51:04;100002.91;;;6.53;100.00
45894;BME280;31603;51.148;16.932;2024-01-25T04:53:31;99998.22;;;6.46;100.00
45894;BME280;31603;51.148;16.932;2024-01-25T04:55:58;100012.97;;;6.52;100.00
45894;BME280;31603;51.148;16.932;2024-01-25T04:58:26;99994.22;;;6.49;100.00
45894;BME280;31603;51.148;16.932;2024-01-25T05:00:52;100019.88;;;6.48;100.00
45894;BME280;31603;51.148;16.932;2024-01-25T05:03:20;100001.47;;;6.42;100.00
45894;BME280;31603;51.148;16.932;2024-01-25T05:05:46;100003.09;;;6.51;100.00
45894;BME280;31603;51.148;16.932;2024-01-25T05:08:13;100012.72;;;6.47;100.00
45894;BME280;31603;51.148;16.932;2024-01-25T05:10:39;99992.91;;;6.45;100.00
45894;BME280;31603;51.148;16.932;2024-01-25T05:13:05;100001.78;;;6.47;100.00
45894;BME280;31603;51.148;16.932;2024-01-25T05:15:33;100006.88;;;6.50;100.00
45894;BME280;31603;51.148;16.932;2024-01-25T05:17:59;100014.41;;;6.48;100.00
45894;BME280;31603;51.148;16.932;2024-01-25T05:20:25;100010.50;;;6.57;100.00
45894;BME280;31603;51.148;16.932;2024-01-25T05:22:57;100001.69;;;6.55;100.00
45894;BME280;31603;51.148;16.932;2024-01-25T05:25:23;100019.59;;;6.58;100.00
45894;BME280;31603;51.148;16.932;2024-01-25T05:27:51;100014.03;;;6.51;100.00
45894;BME280;31603;51.148;16.932;2024-01-25T05:30:17;100016.09;;;6.49;100.00
45894;BME280;31603;51.148;16.932;2024-01-25T05:32:45;100029.66;;;6.42;100.00
45894;BME280;31603;51.148;16.932;2024-01-25T05:35:13;100024.00;;;6.44;100.00
45894;BME280;31603;51.148;16.932;2024-01-25T05:37:40;100027.78;;;6.43;100.00
45894;BME280;31603;51.148;16.932;2024-01-25T05:40:06;100031.53;;;6.42;100.00
45894;BME280;31603;51.148;16.932;2024-01-25T05:42:34;100027.69;;;6.36;100.00
45894;BME280;31603;51.148;16.932;2024-01-25T05:45:00;100025.97;;;6.35;100.00
45894;BME280;31603;51.148;16.932;2024-01-25T05:47:27;100023.81;;;6.31;100.00
45894;BME280;31603;51.148;16.932;2024-01-25T05:49:55;100024.19;;;6.27;100.00
45894;BME280;31603;51.148;16.932;2024-01-25T05:52:21;100024.53;;;6.24;100.00
45894;BME280;31603;51.148;16.932;2024-01-25T05:54:48;100028.78;;;6.12;100.00
45894;BME280;31603;51.148;16.932;2024-01-25T05:57:15;100036.59;;;6.15;100.00
45894;BME280;31603;51.148;16.932;2024-01-25T05:59:42;100057.50;;;6.08;100.00
45894;BME280;31603;51.148;16.932;2024-01-25T06:02:09;100056.00;;;6.20;100.00
45894;BME280;31603;51.148;16.932;2024-01-25T06:04:35;100076.88;;;6.13;100.00
45894;BME280;31603;51.148;16.932;2024-01-25T06:07:03;100051.19;;;6.08;100.00
45894;BME280;31603;51.148;16.932;2024-01-25T06:09:30;100060.91;;;6.10;100.00
45894;BME280;31603;51.148;16.932;2024-01-25T06:11:56;100066.34;;;6.10;100.00
45894;BME280;31603;51.148;16.932;2024-01-25T06:14:23;100072.38;;;6.20;100.00
45894;BME280;31603;51.148;16.932;2024-01-25T06:16:49;100067.69;;;6.14;100.00
45894;BME280;31603;51.148;16.932;2024-01-25T06:19:16;100073.63;;;6.18;100.00
45894;BME280;31603;51.148;16.932;2024-01-25T06:21:43;100068.31;;;6.16;100.00
45894;BME280;31603;51.148;16.932;2024-01-25T06:24:10;100064.75;;;6.16;100.00
45894;BME280;31603;51.148;16.932;2024-01-25T06:26:37;100082.94;;;6.23;100.00
45894;BME280;31603;51.148;16.932;2024-01-25T06:29:03;100073.34;;;6.27;100.00
45894;BME280;31603;51.148;16.932;2024-01-25T06:31:30;100069.59;;;6.29;100.00
45894;BME280;31603;51.148;16.932;2024-01-25T06:33:56;100094.56;;;6.40;100.00
45894;BME280;31603;51.148;16.932;2024-01-25T06:36:23;100099.19;;;6.40;100.00
45894;BME280;31603;51.148;16.932;2024-01-25T06:38:49;100079.97;;;6.48;100.00
45894;BME280;31603;51.148;16.932;2024-01-25T06:41:17;100093.34;;;6.43;100.00
45894;BME280;31603;51.148;16.932;2024-01-25T06:43:43;100095.03;;;6.44;100.00
45894;BME280;31603;51.148;16.932;2024-01-25T06:46:09;100095.50;;;6.47;100.00
45894;BME280;31603;51.148;16.932;2024-01-25T06:48:36;100103.72;;;6.47;100.00
45894;BME280;31603;51.148;16.932;2024-01-25T06:51:02;100085.53;;;6.55;100.00
45894;BME280;31603;51.148;16.932;2024-01-25T06:53:28;100091.63;;;6.57;100.00
45894;BME280;31603;51.148;16.932;2024-01-25T06:55:55;100102.69;;;6.63;100.00
45894;BME280;31603;51.148;16.932;2024-01-25T06:58:22;100101.72;;;6.56;100.00
45894;BME280;31603;51.148;16.932;2024-01-25T07:00:49;100103.72;;;6.62;100.00
45894;BME280;31603;51.148;16.932;2024-01-25T07:03:15;100097.03;;;6.65;100.00
45894;BME280;31603;51.148;16.932;2024-01-25T07:05:41;100106.66;;;6.75;100.00
45894;BME280;31603;51.148;16.932;2024-01-25T07:08:07;100079.13;;;6.77;100.00
45894;BME280;31603;51.148;16.932;2024-01-25T07:10:38;100051.59;;;6.79;100.00
45894;BME280;31603;51.148;16.932;2024-01-25T07:13:04;100146.03;;;6.81;100.00
45894;BME280;31603;51.148;16.932;2024-01-25T07:15:32;100107.88;;;6.88;100.00
45894;BME280;31603;51.148;16.932;2024-01-25T07:17:58;100127.09;;;6.94;100.00
45894;BME280;31603;51.148;16.932;2024-01-25T07:20:24;100111.66;;;6.87;100.00
45894;BME280;31603;51.148;16.932;2024-01-25T07:22:51;100117.97;;;6.87;100.00
45894;BME280;31603;51.148;16.932;2024-01-25T07:25:17;100126.25;;;6.94;100.00
45894;BME280;31603;51.148;16.932;2024-01-25T07:27:43;100127.66;;;6.90;100.00
45894;BME280;31603;51.148;16.932;2024-01-25T07:30:10;100114.28;;;6.95;100.00
45894;BME280;31603;51.148;16.932;2024-01-25T07:32:38;100122.47;;;6.95;100.00
45894;BME280;31603;51.148;16.932;2024-01-25T07:35:07;100120.38;;;6.97;100.00
45894;BME280;31603;51.148;16.932;2024-01-25T07:37:34;100121.91;;;6.99;100.00
45894;BME280;31603;51.148;16.932;2024-01-25T07:40:01;100130.31;;;6.98;100.00
45894;BME280;31603;51.148;16.932;2024-01-25T07:42:28;100145.94;;;7.04;100.00
45894;BME280;31603;51.148;16.932;2024-01-25T07:44:54;100151.50;;;7.11;100.00
45894;BME280;31603;51.148;16.932;2024-01-25T07:47:20;100148.13;;;7.09;100.00
45894;BME280;31603;51.148;16.932;2024-01-25T07:49:48;100155.56;;;7.15;100.00
45894;BME280;31603;51.148;16.932;2024-01-25T07:52:14;100142.75;;;7.15;100.00
45894;BME280;31603;51.148;16.932;2024-01-25T07:54:41;100160.00;;;7.16;100.00
45894;BME280;31603;51.148;16.932;2024-01-25T07:57:07;100144.25;;;7.18;100.00
45894;BME280;31603;51.148;16.932;2024-01-25T07:59:33;100159.06;;;7.23;100.00
45894;BME280;31603;51.148;16.932;2024-01-25T08:02:00;100176.78;;;7.13;100.00
45894;BME280;31603;51.148;16.932;2024-01-25T08:04:26;100169.69;;;7.18;100.00
45894;BME280;31603;51.148;16.932;2024-01-25T08:06:54;100203.19;;;7.20;100.00
45894;BME280;31603;51.148;16.932;2024-01-25T08:09:20;100162.25;;;7.27;100.00
45894;BME280;31603;51.148;16.932;2024-01-25T08:11:46;100173.19;;;7.27;100.00
45894;BME280;31603;51.148;16.932;2024-01-25T08:14:13;100189.78;;;7.26;100.00
45894;BME280;31603;51.148;16.932;2024-01-25T08:16:39;100207.25;;;7.24;100.00
45894;BME280;31603;51.148;16.932;2024-01-25T08:19:06;100188.38;;;7.30;100.00
45894;BME280;31603;51.148;16.932;2024-01-25T08:21:32;100186.56;;;7.22;100.00
45894;BME280;31603;51.148;16.932;2024-01-25T08:24:02;100188.47;;;7.21;100.00
45894;BME280;31603;51.148;16.932;2024-01-25T08:26:29;100190.63;;;7.26;100.00
45894;BME280;31603;51.148;16.932;2024-01-25T08:28:55;100197.47;;;7.15;100.00
45894;BME280;31603;51.148;16.932;2024-01-25T08:31:21;100202.53;;;7.18;100.00
45894;BME280;31603;51.148;16.932;2024-01-25T08:33:48;100212.34;;;7.28;100.00
45894;BME280;31603;51.148;16.932;2024-01-25T08:36:16;100195.19;;;7.19;100.00
45894;BME280;31603;51.148;16.932;2024-01-25T08:38:43;100192.47;;;7.19;100.00
45894;BME280;31603;51.148;16.932;2024-01-25T08:41:10;100204.31;;;7.11;100.00
45894;BME280;31603;51.148;16.932;2024-01-25T08:43:39;100202.44;;;7.27;100.00
45894;BME280;31603;51.148;16.932;2024-01-25T08:46:05;100208.41;;;7.15;100.00
45894;BME280;31603;51.148;16.932;2024-01-25T08:48:31;100220.81;;;7.33;100.00
45894;BME280;31603;51.148;16.932;2024-01-25T08:50:58;100211.88;;;7.24;100.00
45894;BME280;31603;51.148;16.932;2024-01-25T08:53:24;100206.97;;;7.19;100.00
45894;BME280;31603;51.148;16.932;2024-01-25T08:55:52;100226.41;;;7.24;100.00
45894;BME280;31603;51.148;16.932;2024-01-25T08:58:19;100216.41;;;7.17;100.00
45894;BME280;31603;51.148;16.932;2024-01-25T09:00:46;100151.59;;;6.88;100.00
45894;BME280;31603;51.148;16.932;2024-01-25T09:03:12;100214.97;;;7.36;100.00
45894;BME280;31603;51.148;16.932;2024-01-25T09:05:39;100224.22;;;7.35;100.00
45894;BME280;31603;51.148;16.932;2024-01-25T09:08:10;100227.13;;;7.33;100.00
45894;BME280;31603;51.148;16.932;2024-01-25T09:10:37;100225.75;;;7.37;100.00
45894;BME280;31603;51.148;16.932;2024-01-25T09:13:04;100236.38;;;7.47;100.00
45894;BME280;31603;51.148;16.932;2024-01-25T09:15:32;100239.13;;;7.47;100.00
45894;BME280;31603;51.148;16.932;2024-01-25T09:17:58;100246.84;;;7.43;100.00
45894;BME280;31603;51.148;16.932;2024-01-25T09:20:25;100237.81;;;7.43;100.00
45894;BME280;31603;51.148;16.932;2024-01-25T09:22:51;100261.31;;;7.52;100.00
45894;BME280;31603;51.148;16.932;2024-01-25T09:25:18;100259.69;;;7.43;100.00
45894;BME280;31603;51.148;16.932;2024-01-25T09:27:45;100247.44;;;7.39;100.00
45894;BME280;31603;51.148;16.932;2024-01-25T09:30:11;100262.81;;;7.40;100.00
45894;BME280;31603;51.148;16.932;2024-01-25T09:32:39;100267.53;;;7.46;100.00
45894;BME280;31603;51.148;16.932;2024-01-25T09:35:06;100286.69;;;7.46;100.00
45894;BME280;31603;51.148;16.932;2024-01-25T09:37:33;100264.41;;;7.49;100.00
45894;BME280;31603;51.148;16.932;2024-01-25T09:39:59;100279.53;;;7.45;100.00
45894;BME280;31603;51.148;16.932;2024-01-25T09:42:27;100262.31;;;7.21;100.00
45894;BME280;31603;51.148;16.932;2024-01-25T09:44:53;100257.16;;;7.41;100.00
45894;BME280;31603;51.148;16.932;2024-01-25T09:47:20;100265.75;;;7.38;100.00
45894;BME280;31603;51.148;16.932;2024-01-25T09:49:48;100270.63;;;7.43;100.00
45894;BME280;31603;51.148;16.932;2024-01-25T09:52:14;100271.22;;;7.53;100.00
45894;BME280;31603;51.148;16.932;2024-01-25T09:54:42;100290.94;;;7.48;100.00
45894;BME280;31603;51.148;16.932;2024-01-25T09:57:11;100270.16;;;7.54;100.00
45894;BME280;31603;51.148;16.932;2024-01-25T09:59:40;100289.31;;;7.54;100.00
45894;BME280;31603;51.148;16.932;2024-01-25T10:02:06;100285.84;;;7.60;100.00
45894;BME280;31603;51.148;16.932;2024-01-25T10:04:33;100298.84;;;7.58;100.00
45894;BME280;31603;51.148;16.932;2024-01-25T10:07:01;100285.47;;;7.63;100.00
45894;BME280;31603;51.148;16.932;2024-01-25T10:09:27;100294.88;;;7.76;100.00
45894;BME280;31603;51.148;16.932;2024-01-25T10:11:54;100316.50;;;7.70;100.00
45894;BME280;31603;51.148;16.932;2024-01-25T10:14:20;100273.56;;;7.71;100.00
45894;BME280;31603;51.148;16.932;2024-01-25T10:16:47;100289.31;;;7.84;100.00
45894;BME280;31603;51.148;16.932;2024-01-25T10:19:13;100282.53;;;7.65;100.00
45894;BME280;31603;51.148;16.932;2024-01-25T10:21:41;100295.47;;;7.71;100.00
45894;BME280;31603;51.148;16.932;2024-01-25T10:24:09;100274.59;;;7.55;100.00
45894;BME280;31603;51.148;16.932;2024-01-25T10:26:36;100286.28;;;7.79;100.00
45894;BME280;31603;51.148;16.932;2024-01-25T10:29:02;100288.53;;;7.90;100.00
45894;BME280;31603;51.148;16.932;2024-01-25T10:31:29;100297.34;;;7.85;100.00
45894;BME280;31603;51.148;16.932;2024-01-25T10:33:56;100288.94;;;7.57;100.00
45894;BME280;31603;51.148;16.932;2024-01-25T10:36:23;100272.94;;;8.05;100.00
45894;BME280;31603;51.148;16.932;2024-01-25T10:38:50;100303.19;;;7.82;100.00
45894;BME280;31603;51.148;16.932;2024-01-25T10:41:17;100305.91;;;7.97;100.00
45894;BME280;31603;51.148;16.932;2024-01-25T10:43:45;100307.34;;;7.93;100.00
45894;BME280;31603;51.148;16.932;2024-01-25T10:46:12;100301.56;;;7.88;99.30
45894;BME280;31603;51.148;16.932;2024-01-25T10:48:38;100316.31;;;7.87;99.26
45894;BME280;31603;51.148;16.932;2024-01-25T10:51:05;100288.16;;;7.93;98.53
45894;BME280;31603;51.148;16.932;2024-01-25T10:53:33;100324.63;;;7.93;97.98
45894;BME280;31603;51.148;16.932;2024-01-25T10:56:00;100311.38;;;7.97;96.62
45894;BME280;31603;51.148;16.932;2024-01-25T10:58:31;100308.38;;;7.92;96.58
45894;BME280;31603;51.148;16.932;2024-01-25T11:00:58;100302.81;;;7.85;95.98
45894;BME280;31603;51.148;16.932;2024-01-25T11:03:25;100289.75;;;7.87;96.01
45894;BME280;31603;51.148;16.932;2024-01-25T11:05:52;100298.81;;;7.88;97.05
45894;BME280;31603;51.148;16.932;2024-01-25T11:08:18;100304.31;;;7.88;96.32
45894;BME280;31603;51.148;16.932;2024-01-25T11:10:48;100311.13;;;7.92;95.99
45894;BME280;31603;51.148;16.932;2024-01-25T11:13:23;100269.97;;;7.70;96.15
45894;BME280;31603;51.148;16.932;2024-01-25T11:15:51;100294.97;;;7.82;96.52
45894;BME280;31603;51.148;16.932;2024-01-25T11:18:18;100303.66;;;7.86;97.35
45894;BME280;31603;51.148;16.932;2024-01-25T11:20:46;100263.94;;;7.75;98.45
45894;BME280;31603;51.148;16.932;2024-01-25T11:23:14;100298.19;;;7.86;98.54
45894;BME280;31603;51.148;16.932;2024-01-25T11:25:41;100312.22;;;8.12;99.43
45894;BME280;31603;51.148;16.932;2024-01-25T11:28:11;100308.53;;;8.05;100.00
45894;BME280;31603;51.148;16.932;2024-01-25T11:30:37;100293.06;;;7.97;100.00
45894;BME280;31603;51.148;16.932;2024-01-25T11:33:06;100301.50;;;7.81;100.00
45894;BME280;31603;51.148;16.932;2024-01-25T11:35:32;100321.59;;;7.88;100.00
45894;BME280;31603;51.148;16.932;2024-01-25T11:37:59;100313.06;;;7.98;100.00
45894;BME280;31603;51.148;16.932;2024-01-25T11:40:27;100295.25;;;7.87;100.00
45894;BME280;31603;51.148;16.932;2024-01-25T11:42:55;100301.50;;;7.81;100.00
45894;BME280;31603;51.148;16.932;2024-01-25T11:45:22;100296.94;;;8.03;100.00
45894;BME280;31603;51.148;16.932;2024-01-25T11:47:49;100304.53;;;8.59;100.00
45894;BME280;31603;51.148;16.932;2024-01-25T11:50:17;100321.84;;;9.02;93.93
45894;BME280;31603;51.148;16.932;2024-01-25T11:52:43;100309.25;;;8.29;94.13
45894;BME280;31603;51.148;16.932;2024-01-25T11:55:09;100303.78;;;8.65;94.38
45894;BME280;31603;51.148;16.932;2024-01-25T11:57:36;100298.22;;;8.80;91.89
45894;BME280;31603;51.148;16.932;2024-01-25T12:00:04;100307.81;;;8.48;91.55
45894;BME280;31603;51.148;16.932;2024-01-25T12:02:31;100305.13;;;8.54;90.39
45894;BME280;31603;51.148;16.932;2024-01-25T12:04:58;100305.38;;;8.59;88.96
45894;BME280;31603;51.148;16.932;2024-01-25T12:07:26;100322.38;;;8.70;88.92
45894;BME280;31603;51.148;16.932;2024-01-25T12:09:58;100326.09;;;8.62;88.83
45894;BME280;31603;51.148;16.932;2024-01-25T12:12:27;100329.00;;;8.60;87.22
45894;BME280;31603;51.148;16.932;2024-01-25T12:14:57;100296.47;;;8.36;87.10
45894;BME280;31603;51.148;16.932;2024-01-25T12:17:23;100332.63;;;8.61;87.53
45894;BME280;31603;51.148;16.932;2024-01-25T12:19:51;100332.94;;;8.73;87.51
45894;BME280;31603;51.148;16.932;2024-01-25T12:22:20;100327.69;;;8.56;86.20
45894;BME280;31603;51.148;16.932;2024-01-25T12:24:48;100332.03;;;8.65;85.78
45894;BME280;31603;51.148;16.932;2024-01-25T12:27:15;100343.53;;;8.76;85.68
45894;BME280;31603;51.148;16.932;2024-01-25T12:29:41;100337.47;;;8.80;84.94
45894;BME280;31603;51.148;16.932;2024-01-25T12:32:09;100329.00;;;8.60;85.08
45894;BME280;31603;51.148;16.932;2024-01-25T12:34:35;100338.06;;;8.97;83.72
45894;BME280;31603;51.148;16.932;2024-01-25T12:37:04;100335.75;;;9.01;82.25
45894;BME280;31603;51.148;16.932;2024-01-25T12:39:30;100324.28;;;8.90;82.20
45894;BME280;31603;51.148;16.932;2024-01-25T12:41:58;100364.03;;;9.01;81.13